Time;durP1;ratioP1;P1;durP2;ratioP2;P2;SDS_P1;SDS_P2;PMS_P1;PMS_P2;Temp;Humidity;BMP_temperature;BMP_pressure;BME280_temperature;BME280_humidity;BME280_pressure;Samples;Min_cycle;Max_cycle;Signal;HPM_P1;HPM_P2
2022/06/24 00:02:20;;;;;;;6.50;4.80;;;;;;;23.09;74.52;99308.31;5014072;28;20570;-62
2022/06/24 00:04:52;;;;;;;10.40;4.57;;;;;;;23.25;73.01;99309.03;5012873;28;20257;-63
2022/06/24 00:07:18;;;;;;;5.37;4.70;;;;;;;23.29;72.25;99308.22;5013263;28;20275;-63
2022/06/24 00:09:46;;;;;;;8.57;5.23;;;;;;;23.14;72.39;99304.75;5013279;28;20617;-63
2022/06/24 00:12:16;;;;;;;5.97;5.10;;;;;;;23.10;72.71;99309.94;5012743;28;20198;-63
2022/06/24 00:14:45;;;;;;;6.60;4.60;;;;;;;23.00;72.49;99310.00;5013756;28;20733;-63
2022/06/24 00:17:13;;;;;;;5.13;4.47;;;;;;;23.03;72.92;99306.72;5012937;28;20204;-63
2022/06/24 00:19:54;;;;;;;7.07;4.57;;;;;;;22.97;73.46;99304.31;5012633;28;20325;-62
2022/06/24 00:22:21;;;;;;;5.17;4.77;;;;;;;22.89;73.46;99303.03;5012548;28;20636;-63
2022/06/24 00:24:48;;;;;;;4.90;4.23;;;;;;;22.75;74.04;99298.50;5012834;28;20196;-63
2022/06/24 00:27:22;;;;;;;5.33;4.80;;;;;;;22.61;74.77;99311.00;5012800;28;20199;-63
2022/06/24 00:29:50;;;;;;;7.33;5.20;;;;;;;22.63;74.89;99293.44;5013575;28;20228;-62
2022/06/24 00:32:29;;;;;;;8.03;4.60;;;;;;;22.63;75.25;99300.72;5012431;28;20253;-63
2022/06/24 00:35:04;;;;;;;5.33;4.47;;;;;;;22.72;75.83;99297.16;5013033;28;20613;-63
2022/06/24 00:37:32;;;;;;;5.87;4.77;;;;;;;22.71;74.97;99284.69;5013178;28;20593;-63
2022/06/24 00:40:00;;;;;;;5.23;4.43;;;;;;;22.75;75.16;99287.66;5012585;28;20666;-63
2022/06/24 00:42:29;;;;;;;4.27;3.93;;;;;;;22.84;75.45;99284.09;5012058;28;20222;-63
2022/06/24 00:45:19;;;;;;;4.80;3.83;;;;;;;22.92;73.54;99280.78;5013039;28;20530;-63
2022/06/24 00:47:47;;;;;;;5.50;4.20;;;;;;;22.89;73.15;99280.53;5012524;28;20221;-63
2022/06/24 00:50:23;;;;;;;6.13;4.20;;;;;;;22.86;73.51;99281.91;5012213;28;20261;-63
2022/06/24 00:52:53;;;;;;;3.73;3.53;;;;;;;22.88;73.65;99290.56;5012805;28;20197;-63
2022/06/24 00:55:21;;;;;;;6.57;4.07;;;;;;;22.90;73.25;99293.78;5012500;28;20704;-63
2022/06/24 00:57:50;;;;;;;7.57;4.13;;;;;;;22.89;72.68;99296.78;5012104;28;20248;-63
2022/06/24 01:00:18;;;;;;;9.97;4.37;;;;;;;22.92;74.74;99301.66;5012431;28;20240;-63
2022/06/24 01:02:47;;;;;;;5.30;3.93;;;;;;;22.96;74.28;99295.41;5012011;28;20218;-63
2022/06/24 01:05:13;;;;;;;7.77;3.87;;;;;;;23.08;73.64;99297.75;5013145;28;20199;-63
2022/06/24 01:07:41;;;;;;;4.20;3.90;;;;;;;23.16;72.44;99308.78;5012585;28;20217;-63
2022/06/24 01:10:10;;;;;;;4.97;3.73;;;;;;;23.19;72.66;99308.22;5012586;28;20194;-62
2022/06/24 01:12:37;;;;;;;5.43;4.13;;;;;;;23.16;71.46;99314.22;5012581;28;20200;-62
2022/06/24 01:15:07;;;;;;;4.77;3.70;;;;;;;22.99;72.77;99307.56;4992624;28;20199;-63
2022/06/24 01:17:34;;;;;;;5.00;4.17;;;;;;;22.73;72.67;99309.63;4993394;28;20200;-63
2022/06/24 01:20:01;;;;;;;4.57;4.07;;;;;;;22.61;74.45;99316.44;4993155;28;20265;-63
2022/06/24 01:22:29;;;;;;;5.93;4.03;;;;;;;22.58;73.69;99317.81;4992802;28;20230;-63
2022/06/24 01:24:56;;;;;;;3.93;3.50;;;;;;;22.64;74.24;99327.53;4992580;28;20200;-62
2022/06/24 01:27:23;;;;;;;4.67;4.10;;;;;;;22.74;73.64;99326.69;4992499;28;20198;-63
2022/06/24 01:29:50;;;;;;;4.20;3.90;;;;;;;22.76;72.89;99327.19;4992480;28;20614;-63
2022/06/24 01:32:17;;;;;;;4.87;4.30;;;;;;;22.74;72.71;99329.38;4992229;28;20326;-62
2022/06/24 01:34:44;;;;;;;5.40;4.07;;;;;;;22.75;72.63;99329.09;4992210;28;20692;-63
2022/06/24 01:37:11;;;;;;;5.60;4.10;;;;;;;22.74;72.28;99324.78;4992176;28;20695;-63
2022/06/24 01:39:39;;;;;;;4.50;4.20;;;;;;;22.71;72.99;99319.09;4992382;28;20230;-64
2022/06/24 01:42:07;;;;;;;6.30;3.50;;;;;;;22.67;74.46;99326.97;4992921;28;20199;-62
2022/06/24 01:44:34;;;;;;;4.23;3.93;;;;;;;22.84;72.56;99327.44;4992958;28;20203;-62
2022/06/24 01:47:01;;;;;;;5.30;4.77;;;;;;;22.79;71.78;99340.19;4993143;28;20208;-62
2022/06/24 01:49:28;;;;;;;5.93;4.33;;;;;;;22.76;72.00;99333.44;4992872;28;20195;-62
2022/06/24 01:51:58;;;;;;;4.50;4.10;;;;;;;22.74;72.12;99338.31;4992077;28;20253;-62
2022/06/24 01:54:25;;;;;;;6.43;4.53;;;;;;;22.67;72.68;99321.53;4994278;28;20227;-62
2022/06/24 01:56:54;;;;;;;5.10;4.60;;;;;;;22.68;72.52;99323.19;4996206;28;20203;-62
2022/06/24 01:59:21;;;;;;;5.57;5.00;;;;;;;22.62;72.92;99329.69;4995588;28;20203;-62
2022/06/24 02:01:48;;;;;;;5.70;5.30;;;;;;;22.55;73.15;99329.22;4995488;28;20663;-62
2022/06/24 02:04:15;;;;;;;6.47;5.97;;;;;;;22.47;72.91;99327.06;4995933;28;20285;-62
2022/06/24 02:06:42;;;;;;;6.23;5.67;;;;;;;22.34;73.69;99322.19;4995739;28;20253;-62
2022/06/24 02:09:09;;;;;;;6.97;6.03;;;;;;;22.30;73.90;99320.34;4995709;28;20274;-62
2022/06/24 02:14:23;;;;;;;6.67;6.07;;;;;;;21.99;75.90;99318.78;5009177;28;20268;-62
2022/06/24 02:16:50;;;;;;;6.27;5.83;;;;;;;21.90;76.15;99323.97;5015709;28;20199;-63
2022/06/24 02:19:17;;;;;;;10.43;6.60;;;;;;;21.73;76.46;99326.16;5014802;28;20625;-62
2022/06/24 02:21:44;;;;;;;5.87;5.33;;;;;;;21.58;78.74;99320.72;5014802;28;20198;-63
2022/06/24 02:24:13;;;;;;;9.10;5.67;;;;;;;21.74;78.18;99327.75;5014887;28;20229;-63
2022/06/24 02:26:39;;;;;;;6.67;6.20;;;;;;;21.92;76.72;99329.88;5014709;28;20289;-63
2022/06/24 02:29:06;;;;;;;7.77;6.00;;;;;;;22.01;75.79;99328.25;5014625;28;20662;-63
2022/06/24 02:31:34;;;;;;;7.60;6.93;;;;;;;22.00;75.44;99320.41;5015107;28;20248;-63
2022/06/24 02:34:01;;;;;;;7.10;6.50;;;;;;;21.91;75.45;99313.94;5014537;28;20201;-62
2022/06/24 02:36:28;;;;;;;7.47;6.63;;;;;;;21.92;75.52;99308.25;5014800;28;20276;-63
2022/06/24 02:38:54;;;;;;;9.90;6.80;;;;;;;21.85;75.66;99302.31;5014776;28;20226;-62
2022/06/24 02:41:21;;;;;;;8.67;6.70;;;;;;;21.83;75.44;99304.50;5015472;28;20202;-63
2022/06/24 02:43:48;;;;;;;9.17;6.57;;;;;;;21.76;75.85;99297.75;5014273;28;20218;-63
2022/06/24 02:46:16;;;;;;;5.80;5.40;;;;;;;21.64;76.54;99305.31;5014314;28;20256;-63
2022/06/24 02:48:46;;;;;;;7.23;5.93;;;;;;;21.76;76.34;99306.66;5014202;28;20205;-62
2022/06/24 02:51:15;;;;;;;7.53;6.83;;;;;;;21.87;75.32;99321.78;5015010;28;20202;-65
2022/06/24 02:53:43;;;;;;;7.57;6.57;;;;;;;21.83;77.21;99320.72;5014436;28;20293;-62
2022/06/24 02:56:13;;;;;;;6.90;6.40;;;;;;;21.90;75.82;99334.78;5014442;28;20198;-63
2022/06/24 02:58:40;;;;;;;7.20;6.53;;;;;;;21.80;75.55;99313.13;5014418;28;20195;-63
2022/06/24 03:01:07;;;;;;;9.00;6.17;;;;;;;21.85;76.39;99329.34;5014285;28;20252;-63
2022/06/24 03:03:35;;;;;;;8.03;6.63;;;;;;;21.93;75.61;99322.59;5014761;28;20226;-63
2022/06/24 03:06:03;;;;;;;10.10;6.83;;;;;;;21.90;75.27;99318.56;5013947;28;20264;-63
2022/06/24 03:08:30;;;;;;;14.07;7.17;;;;;;;21.83;74.89;99318.00;5014061;28;20226;-63
2022/06/24 03:10:58;;;;;;;11.37;6.97;;;;;;;21.68;76.00;99311.78;5014073;28;20252;-63
2022/06/24 03:13:25;;;;;;;7.93;6.90;;;;;;;21.70;78.10;99317.72;5013980;28;20226;-63
2022/06/24 03:15:51;;;;;;;8.63;6.13;;;;;;;22.12;77.51;99329.84;5014452;28;20190;-63
2022/06/24 03:18:19;;;;;;;7.77;6.00;;;;;;;22.60;75.12;99331.88;5013562;28;20632;-63
2022/06/24 03:20:46;;;;;;;8.70;5.53;;;;;;;22.80;74.14;99325.56;5013602;28;20190;-64
2022/06/24 03:23:14;;;;;;;6.83;6.27;;;;;;;22.97;72.69;99334.13;5013535;28;20743;-63
2022/06/24 03:25:41;;;;;;;8.57;5.70;;;;;;;23.07;72.45;99332.16;5013806;28;20256;-63
2022/06/24 03:28:08;;;;;;;6.63;5.90;;;;;;;23.12;71.91;99340.25;5014363;28;20247;-63
2022/06/24 03:30:35;;;;;;;10.83;6.30;;;;;;;23.16;71.09;99340.53;5013358;28;20253;-63
2022/06/24 03:33:02;;;;;;;13.57;6.50;;;;;;;23.27;70.64;99344.81;5013383;28;20625;-63
2022/06/24 03:35:30;;;;;;;8.80;6.53;;;;;;;23.23;70.58;99349.97;5013589;28;20201;-63
2022/06/24 03:37:56;;;;;;;7.63;6.87;;;;;;;23.09;71.89;99345.44;5013350;28;20286;-63
2022/06/24 03:40:24;;;;;;;7.90;7.13;;;;;;;22.75;72.36;99339.13;5013725;28;20565;-63
2022/06/24 03:42:51;;;;;;;8.50;7.50;;;;;;;22.48;73.76;99338.69;5013633;28;20199;-63
2022/06/24 03:45:18;;;;;;;9.93;7.17;;;;;;;22.29;75.55;99335.75;5013473;28;20197;-63
2022/06/24 03:47:45;;;;;;;9.80;7.47;;;;;;;22.10;77.40;99342.03;5013077;28;20201;-63
2022/06/24 03:50:12;;;;;;;8.87;8.07;;;;;;;22.09;76.16;99343.13;5013051;28;20669;-63
2022/06/24 03:52:39;;;;;;;10.00;8.20;;;;;;;22.07;76.12;99338.00;5013301;28;20256;-63
2022/06/24 03:55:06;;;;;;;17.97;7.43;;;;;;;21.96;78.60;99330.97;5012978;28;20654;-63
2022/06/24 03:57:34;;;;;;;8.07;7.47;;;;;;;22.04;76.89;99330.41;5013561;28;20198;-63
2022/06/24 04:00:01;;;;;;;8.90;8.00;;;;;;;21.97;77.00;99327.16;5013539;28;20194;-63
2022/06/24 04:02:28;;;;;;;10.17;8.23;;;;;;;21.87;77.49;99323.69;5012895;28;20201;-64
2022/06/24 04:04:55;;;;;;;9.37;8.13;;;;;;;21.82;77.82;99319.09;5013103;28;20225;-63
2022/06/24 04:07:21;;;;;;;16.87;7.87;;;;;;;21.88;79.22;99323.41;5012834;28;20731;-63
2022/06/24 04:09:48;;;;;;;8.33;7.20;;;;;;;22.15;77.16;99329.31;5012742;28;20666;-62
2022/06/24 04:12:15;;;;;;;10.50;7.60;;;;;;;22.36;75.46;99330.88;5012743;28;20665;-62
2022/06/24 04:17:27;;;;;;;7.83;7.07;;;;;;;22.77;73.91;99326.94;5012293;28;20202;-64
2022/06/24 04:19:54;;;;;;;9.00;6.97;;;;;;;22.93;73.56;99316.81;5012542;28;20728;-63
2022/06/24 04:22:21;;;;;;;8.80;6.67;;;;;;;22.99;72.71;99319.19;5012615;28;20724;-63
2022/06/24 04:24:48;;;;;;;8.40;7.40;;;;;;;22.90;72.29;99310.06;5012207;28;20701;-64
2022/06/24 04:27:15;;;;;;;16.53;7.03;;;;;;;22.96;72.84;99311.66;5012607;28;20256;-63
2022/06/24 04:29:43;;;;;;;10.23;6.53;;;;;;;23.13;71.31;99320.22;5012520;28;20599;-63
2022/06/24 04:32:10;;;;;;;8.57;6.13;;;;;;;23.41;71.44;99322.22;5012611;28;20666;-63
2022/06/24 04:34:38;;;;;;;22.07;7.63;;;;;;;23.60;71.23;99320.41;5012691;28;20572;-63
2022/06/24 04:37:05;;;;;;;13.50;7.93;;;;;;;23.81;69.20;99321.84;5012543;28;20198;-63
2022/06/24 04:39:32;;;;;;;10.63;7.60;;;;;;;24.02;69.79;99323.28;5012238;28;20665;-63
2022/06/24 04:41:59;;;;;;;7.83;6.80;;;;;;;24.47;68.48;99320.06;5011918;28;20670;-63
2022/06/24 04:44:26;;;;;;;9.80;7.30;;;;;;;25.25;65.24;99325.00;5012012;28;20700;-63
2022/06/24 04:46:54;;;;;;;11.30;7.83;;;;;;;25.91;62.13;99334.53;5012429;28;20200;-63
2022/06/24 04:49:21;;;;;;;8.33;7.60;;;;;;;26.30;60.76;99334.09;5011932;28;20700;-63
2022/06/24 04:51:47;;;;;;;11.13;6.90;;;;;;;26.67;59.44;99331.19;5012087;28;20190;-63
2022/06/24 04:54:14;;;;;;;10.97;7.40;;;;;;;27.43;56.72;99339.28;5012417;28;20261;-63
2022/06/24 04:56:41;;;;;;;8.53;6.33;;;;;;;27.78;56.50;99319.31;5012049;28;20201;-63
2022/06/24 04:59:07;;;;;;;11.50;6.60;;;;;;;28.42;54.00;99335.91;5012378;28;20193;-63
2022/06/24 05:01:34;;;;;;;11.87;6.03;;;;;;;28.97;52.79;99330.75;5013192;28;20260;-63
2022/06/24 05:04:03;;;;;;;8.20;6.10;;;;;;;29.76;49.04;99345.75;5012187;28;20660;-63
2022/06/24 05:06:30;;;;;;;7.00;6.20;;;;;;;30.00;48.14;99348.75;5012053;28;20198;-63
2022/06/24 05:08:57;;;;;;;7.97;5.70;;;;;;;29.97;47.47;99349.41;5012556;28;20280;-63
2022/06/24 05:11:24;;;;;;;9.23;5.73;;;;;;;30.21;47.91;99352.44;5012166;28;20198;-63
2022/06/24 05:13:51;;;;;;;11.10;5.67;;;;;;;30.26;47.02;99341.31;5012696;28;20280;-63
2022/06/24 05:16:18;;;;;;;6.87;5.00;;;;;;;30.50;46.00;99357.16;5013051;28;20301;-63
2022/06/24 05:18:45;;;;;;;5.10;4.57;;;;;;;30.50;45.01;99352.47;5011920;28;20556;-63
2022/06/24 05:21:13;;;;;;;8.83;4.90;;;;;;;30.62;44.44;99357.28;5011893;28;20189;-63
2022/06/24 05:23:40;;;;;;;8.67;7.70;;;;;;;31.07;45.09;99353.63;5012486;28;20230;-66
2022/06/24 05:26:07;;;;;;;4.00;3.23;;;;;;;31.39;43.65;99363.91;5012120;28;20252;-65
2022/06/24 05:28:36;;;;;;;9.17;4.23;;;;;;;31.72;42.59;99367.50;5014030;28;20221;-66
2022/06/24 05:31:02;;;;;;;4.83;3.63;;;;;;;32.15;41.28;99376.13;5015703;28;20289;-65
2022/06/24 05:33:30;;;;;;;4.50;4.10;;;;;;;32.49;40.41;99381.25;5005678;28;20199;-66
2022/06/24 05:35:58;;;;;;;6.27;4.20;;;;;;;32.59;39.91;99374.50;5013153;28;20187;-67
2022/06/24 05:38:27;;;;;;;4.47;3.77;;;;;;;32.76;39.24;99372.34;4995896;28;20226;-67
2022/06/24 05:40:54;;;;;;;7.90;4.03;;;;;;;33.39;38.20;99375.50;5004638;28;20279;-65
2022/06/24 05:43:21;;;;;;;3.80;3.50;;;;;;;33.43;37.78;99368.16;5016343;28;20272;-65
2022/06/24 05:45:48;;;;;;;5.57;3.30;;;;;;;33.75;37.33;99369.84;5015406;28;20651;-66
2022/06/24 05:48:15;;;;;;;5.00;3.53;;;;;;;34.00;37.02;99352.06;5015648;28;20252;-65
2022/06/24 05:50:42;;;;;;;8.83;3.17;;;;;;;33.87;36.94;99356.03;4995921;28;20261;-66
2022/06/24 05:55:59;;;;;;;5.55;3.30;;;;;;;33.84;37.13;99348.47;4995404;28;20251;-65
2022/06/24 05:58:26;;;;;;;5.33;3.70;;;;;;;33.30;37.55;99357.13;4995052;28;20714;-65
2022/06/24 06:00:54;;;;;;;11.30;3.70;;;;;;;33.80;37.15;99358.56;4995769;28;20245;-65
2022/06/24 06:03:21;;;;;;;7.90;3.60;;;;;;;34.20;36.82;99356.53;4995595;28;20195;-65
2022/06/24 06:05:48;;;;;;;4.88;3.33;;;;;;;34.18;36.07;99364.38;4998486;28;20248;-65
2022/06/24 06:08:15;;;;;;;8.15;3.88;;;;;;;34.08;36.42;99349.13;5014818;28;20261;-65
2022/06/24 06:10:43;;;;;;;3.17;2.85;;;;;;;33.87;36.73;99359.59;5015077;28;20281;-64
2022/06/24 06:13:12;;;;;;;4.70;3.13;;;;;;;33.57;37.62;99352.81;5014685;28;20229;-65
2022/06/24 06:15:40;;;;;;;8.18;3.67;;;;;;;33.70;37.56;99364.59;5015102;28;20281;-65
2022/06/24 06:18:07;;;;;;;6.68;3.15;;;;;;;33.82;37.34;99361.81;5014547;28;20580;-65
2022/06/24 06:20:34;;;;;;;6.28;3.47;;;;;;;33.58;38.38;99367.38;5014701;28;20198;-65
2022/06/24 06:23:01;;;;;;;11.65;4.65;;;;;;;33.68;37.58;99377.94;5011099;28;20712;-66
2022/06/24 06:25:27;;;;;;;6.93;3.20;;;;;;;33.64;37.95;99377.03;5013519;28;20287;-65
2022/06/24 06:27:54;;;;;;;21.70;8.68;;;;;;;33.51;38.35;99378.22;5013481;28;20263;-66
2022/06/24 06:30:22;;;;;;;11.82;6.30;;;;;;;33.60;38.29;99387.94;5013527;28;20198;-66
2022/06/24 06:32:49;;;;;;;28.50;12.93;;;;;;;33.66;38.22;99386.53;5014740;28;20190;-67
2022/06/24 06:35:16;;;;;;;14.15;5.68;;;;;;;33.83;37.67;99382.69;5014788;28;20204;-67
2022/06/24 06:37:42;;;;;;;9.50;4.35;;;;;;;33.96;37.55;99381.50;5014409;28;20662;-67
2022/06/24 06:40:10;;;;;;;8.55;4.85;;;;;;;33.58;38.18;99389.44;5013540;28;20192;-66
2022/06/24 06:42:37;;;;;;;7.90;4.47;;;;;;;33.80;38.14;99391.66;5014247;28;20256;-64
2022/06/24 06:45:04;;;;;;;9.48;4.00;;;;;;;33.55;38.27;99379.13;5014149;28;20221;-64
2022/06/24 06:47:33;;;;;;;11.43;3.93;;;;;;;33.47;38.15;99374.56;5015378;28;20592;-66
2022/06/24 06:50:00;;;;;;;6.53;2.97;;;;;;;32.77;39.00;99375.88;5014366;28;20680;-65
2022/06/24 06:52:27;;;;;;;9.43;3.73;;;;;;;31.81;41.13;99381.97;5014293;28;20203;-66
2022/06/24 06:54:54;;;;;;;12.20;3.80;;;;;;;32.34;41.51;99379.16;5014100;28;20721;-66
2022/06/24 06:57:20;;;;;;;17.93;4.23;;;;;;;32.39;40.77;99381.72;5013814;28;20205;-66
2022/06/24 06:59:49;;;;;;;8.37;3.63;;;;;;;32.32;40.99;99370.47;5014259;28;20628;-66
2022/06/24 07:02:15;;;;;;;4.40;3.10;;;;;;;32.56;40.21;99367.75;5014134;28;20194;-67
2022/06/24 07:04:44;;;;;;;7.33;3.77;;;;;;;32.83;39.79;99375.31;5013761;28;20222;-66
2022/06/24 07:07:10;;;;;;;7.30;3.00;;;;;;;32.72;40.01;99370.59;5014119;28;20257;-67
2022/06/24 07:09:37;;;;;;;6.70;3.70;;;;;;;32.57;40.51;99371.28;5014112;28;20268;-64
2022/06/24 07:12:05;;;;;;;6.37;3.37;;;;;;;32.62;40.00;99363.59;4999375;28;20745;-64
2022/06/24 07:14:31;;;;;;;4.40;3.27;;;;;;;32.34;41.53;99373.66;4994312;28;20574;-67
2022/06/24 07:16:58;;;;;;;7.13;3.50;;;;;;;32.36;40.39;99370.59;4994368;28;20257;-65
2022/06/24 07:19:25;;;;;;;3.50;3.20;;;;;;;32.61;42.61;99370.25;4993896;28;20249;-67
2022/06/24 07:21:53;;;;;;;4.20;3.23;;;;;;;32.58;39.47;99365.44;5001152;28;20275;-64
2022/06/24 07:24:19;;;;;;;3.93;3.53;;;;;;;31.93;40.51;99362.78;5013649;28;20221;-64
2022/06/24 07:26:46;;;;;;;3.97;3.67;;;;;;;32.26;41.55;99360.78;5013030;28;20198;-65
2022/06/24 07:29:13;;;;;;;4.37;3.97;;;;;;;32.65;39.52;99364.88;5012676;28;20688;-65
2022/06/24 07:31:40;;;;;;;4.83;3.67;;;;;;;33.02;39.72;99356.28;4993590;28;20199;-65
2022/06/24 07:34:07;;;;;;;3.47;3.20;;;;;;;33.24;38.56;99350.25;4993895;28;20252;-66
2022/06/24 07:36:33;;;;;;;4.28;3.40;;;;;;;33.38;37.11;99347.16;4993747;28;20552;-66
2022/06/24 07:39:02;;;;;;;7.20;3.47;;;;;;;33.47;37.51;99338.75;4993582;28;20733;-66
2022/06/24 07:41:29;;;;;;;7.10;3.10;;;;;;;33.18;38.96;99343.41;5008766;28;20656;-65
2022/06/24 07:43:56;;;;;;;3.80;3.00;;;;;;;33.14;37.45;99339.72;5013364;28;20206;-65
2022/06/24 07:46:22;;;;;;;6.47;2.90;;;;;;;33.16;38.61;99323.66;5013025;28;20194;-65
2022/06/24 07:48:49;;;;;;;5.73;2.97;;;;;;;33.33;37.70;99335.56;5013218;28;20252;-64
2022/06/24 07:51:17;;;;;;;4.43;2.97;;;;;;;33.57;36.56;99332.72;5012712;28;20666;-65
2022/06/24 07:53:46;;;;;;;6.57;3.13;;;;;;;33.55;36.19;99324.03;5013648;28;20202;-66
2022/06/24 07:58:58;;;;;;;3.58;3.20;;;;;;;33.82;37.66;99324.03;5011721;28;20197;-66
2022/06/24 08:01:25;;;;;;;5.05;3.20;;;;;;;34.01;37.21;99323.34;5012503;28;20201;-66
2022/06/24 08:03:52;;;;;;;5.22;3.70;;;;;;;34.10;38.77;99321.22;5013041;28;20194;-63
2022/06/24 08:06:19;;;;;;;3.30;3.10;;;;;;;33.71;36.90;99313.84;5012755;28;20214;-65
2022/06/24 08:08:45;;;;;;;6.63;3.85;;;;;;;33.89;38.38;99312.38;5012896;28;20198;-64
2022/06/24 08:11:13;;;;;;;3.47;3.20;;;;;;;33.77;37.50;99315.19;5012727;28;20190;-66
2022/06/24 08:13:40;;;;;;;4.68;3.08;;;;;;;33.68;38.48;99309.03;5012095;28;20225;-67
2022/06/24 08:16:07;;;;;;;2.78;2.58;;;;;;;33.74;37.15;99316.69;5012654;28;20289;-66
2022/06/24 08:18:34;;;;;;;8.38;3.03;;;;;;;33.86;37.48;99318.59;5012739;28;20654;-66
2022/06/24 08:21:00;;;;;;;5.07;3.10;;;;;;;33.85;37.50;99317.81;5012151;28;20247;-67
2022/06/24 08:23:27;;;;;;;2.97;2.70;;;;;;;33.77;36.80;99326.19;5012537;28;20198;-66
2022/06/24 08:25:54;;;;;;;3.85;3.05;;;;;;;33.61;38.49;99320.66;5012566;28;20264;-67
2022/06/24 08:28:22;;;;;;;3.17;2.97;;;;;;;33.53;37.89;99329.06;5011266;28;20209;-66
2022/06/24 08:30:49;;;;;;;2.88;2.60;;;;;;;33.68;37.45;99331.06;5006841;28;20199;-66
2022/06/24 08:33:15;;;;;;;2.80;2.60;;;;;;;33.64;36.33;99327.41;5012597;28;20255;-66
2022/06/24 08:35:42;;;;;;;3.03;2.58;;;;;;;33.53;36.91;99326.31;5011588;28;20674;-67
2022/06/24 08:38:09;;;;;;;4.87;2.80;;;;;;;32.44;38.45;99309.97;5012141;28;20809;-66
2022/06/24 08:40:36;;;;;;;3.30;2.87;;;;;;;32.82;40.43;99302.16;5012386;28;20198;-65
2022/06/24 08:43:03;;;;;;;3.08;2.65;;;;;;;33.15;38.88;99308.28;5011948;28;20752;-70
2022/06/24 08:45:31;;;;;;;2.80;2.70;;;;;;;33.30;36.99;99310.31;5011155;28;20272;-67
2022/06/24 08:47:58;;;;;;;3.88;2.70;;;;;;;33.45;36.17;99295.00;5011067;28;20676;-65
2022/06/24 08:50:26;;;;;;;4.18;2.55;;;;;;;33.71;35.96;99306.34;5011187;28;20204;-67
2022/06/24 08:52:55;;;;;;;2.60;2.40;;;;;;;33.74;35.43;99310.38;5012086;28;20761;-71
2022/06/24 08:55:22;;;;;;;3.33;3.05;;;;;;;33.48;35.46;99310.84;5012155;28;20202;-77
2022/06/24 08:57:49;;;;;;;7.78;2.42;;;;;;;33.56;34.48;99306.34;5012242;28;20199;-65
2022/06/24 09:00:18;;;;;;;3.03;2.38;;;;;;;33.25;33.64;99307.81;5012729;28;20193;-69
2022/06/24 09:02:47;;;;;;;4.90;2.63;;;;;;;33.47;35.80;99300.19;5015101;28;20200;-68
2022/06/24 09:05:16;;;;;;;6.68;2.40;;;;;;;33.43;32.34;99310.28;5018513;28;20217;-68
2022/06/24 09:07:42;;;;;;;2.63;2.40;;;;;;;33.56;34.15;99303.56;5019121;28;20194;-68
2022/06/24 09:10:12;;;;;;;4.93;2.65;;;;;;;33.38;34.08;99302.25;5019025;28;20260;-68
2022/06/24 09:12:40;;;;;;;5.15;2.78;;;;;;;33.21;33.26;99304.16;5018245;28;20193;-68
2022/06/24 09:15:08;;;;;;;2.50;2.28;;;;;;;33.10;33.95;99302.22;5018297;28;20699;-68
2022/06/24 09:17:37;;;;;;;2.95;1.90;;;;;;;32.99;29.85;99312.13;5019507;28;20232;-66
2022/06/24 09:20:07;;;;;;;1.80;1.70;;;;;;;32.70;28.86;99299.41;5018619;28;20189;-67
2022/06/24 09:22:34;;;;;;;3.58;2.00;;;;;;;32.86;29.21;99302.28;5019372;28;20248;-68
2022/06/24 09:25:03;;;;;;;3.33;2.30;;;;;;;33.11;31.46;99293.63;5018322;28;20693;-77
2022/06/24 09:27:31;;;;;;;4.10;3.23;;;;;;;33.28;32.44;99287.81;5018565;28;20198;-74
2022/06/24 09:29:58;;;;;;;2.10;2.00;;;;;;;33.13;29.63;99296.03;5018275;28;20190;-76
2022/06/24 09:32:24;;;;;;;2.03;1.83;;;;;;;33.29;29.17;99292.19;5018575;28;20190;-72
2022/06/24 09:35:02;;;;;;;3.37;1.80;;;;;;;33.44;27.34;99298.13;5018683;28;20194;-72
2022/06/24 09:37:38;;;;;;;3.10;2.22;;;;;;;31.86;28.73;99296.59;5018261;28;20198;-72
2022/06/24 09:40:20;;;;;;;2.57;2.20;;;;;;;31.95;28.06;99278.06;5014607;28;20729;-73
2022/06/24 09:42:59;;;;;;;3.07;1.90;;;;;;;32.61;28.11;99295.16;4998474;28;20647;-74
2022/06/24 09:45:28;;;;;;;2.87;1.90;;;;;;;32.88;28.78;99291.72;4997780;28;20214;-76
2022/06/24 09:47:57;;;;;;;2.67;2.20;;;;;;;32.92;28.98;99282.41;4998882;28;20195;-75
2022/06/24 09:50:23;;;;;;;2.40;2.20;;;;;;;32.92;26.90;99290.66;4999172;28;20229;-74
2022/06/24 09:52:54;;;;;;;2.80;1.70;;;;;;;32.98;27.86;99286.53;4998828;28;20249;-75
2022/06/24 09:55:24;;;;;;;3.93;1.93;;;;;;;33.18;28.37;99287.50;5000073;28;20202;-76
2022/06/24 09:57:52;;;;;;;1.70;1.60;;;;;;;33.37;27.64;99273.13;5018285;28;20198;-75
2022/06/24 10:03:06;;;;;;;10.13;2.72;;;;;;;33.36;28.87;99268.78;5018021;28;20197;-73
2022/06/24 10:05:36;;;;;;;2.85;1.77;;;;;;;33.53;28.66;99272.03;5016920;28;20221;-73
2022/06/24 10:08:06;;;;;;;1.80;1.70;;;;;;;33.76;27.36;99280.50;5017994;28;20273;-73
2022/06/24 10:10:36;;;;;;;2.65;1.67;;;;;;;33.76;26.20;99275.00;5018079;28;20666;-73
2022/06/24 10:13:08;;;;;;;2.35;1.92;;;;;;;33.92;25.47;99273.88;5017831;28;20316;-73
2022/06/24 10:15:34;;;;;;;21.83;4.05;;;;;;;34.03;25.78;99277.72;5013829;28;20281;-76
2022/06/24 10:18:08;;;;;;;2.92;2.40;;;;;;;33.93;26.60;99260.91;5015072;28;20283;-74
2022/06/24 10:20:36;;;;;;;1.83;1.70;;;;;;;34.05;26.60;99260.81;5015532;28;20182;-74
2022/06/24 10:23:02;;;;;;;3.17;2.00;;;;;;;32.56;27.11;99265.97;5015136;28;20194;-75
2022/06/24 10:25:53;;;;;;;1.92;1.75;;;;;;;33.11;27.67;99265.25;5014951;28;20233;-75
2022/06/24 10:28:19;;;;;;;2.20;2.00;;;;;;;33.39;28.08;99263.34;5014947;28;20285;-76
2022/06/24 10:30:59;;;;;;;3.70;1.90;;;;;;;33.41;26.82;99257.50;5014844;28;20314;-76
2022/06/24 10:33:30;;;;;;;2.25;2.10;;;;;;;32.93;27.28;99270.28;5014859;28;20577;-76
2022/06/24 10:35:59;;;;;;;3.50;1.60;;;;;;;33.18;27.47;99260.78;5014508;28;20205;-76
2022/06/24 10:38:34;;;;;;;1.75;1.65;;;;;;;32.22;24.92;99269.13;5014487;28;20198;-75
2022/06/24 10:41:02;;;;;;;6.77;2.03;;;;;;;32.65;25.84;99263.88;5014250;28;20669;-74
2022/06/24 10:43:38;;;;;;;1.80;1.70;;;;;;;32.67;26.42;99267.06;5013771;28;20202;-74
2022/06/24 10:46:21;;;;;;;3.47;1.90;;;;;;;32.00;26.36;99269.59;5014508;28;20260;-75
2022/06/24 10:49:01;;;;;;;2.47;1.90;;;;;;;32.63;26.75;99270.88;5004121;28;20201;-73
2022/06/24 10:51:34;;;;;;;3.08;1.90;;;;;;;32.93;27.29;99247.44;5015071;28;20200;-74
2022/06/24 10:54:14;;;;;;;8.23;2.83;;;;;;;32.80;24.87;99254.94;5022999;28;20197;-73
2022/06/24 10:56:45;;;;;;;4.35;1.77;;;;;;;32.27;24.64;99257.94;5021267;28;20283;-80
2022/06/24 10:59:12;;;;;;;4.10;1.90;;;;;;;32.71;25.18;99254.22;5014488;28;20570;-78
2022/06/24 11:01:43;;;;;;;2.30;2.10;;;;;;;32.75;25.76;99262.59;5014397;28;20285;-82
2022/06/24 11:04:13;;;;;;;5.87;1.80;;;;;;;32.65;27.66;99258.38;5013928;28;20197;-78
2022/06/24 11:06:40;;;;;;;2.80;1.70;;;;;;;32.60;27.77;99266.88;5014275;28;20217;-78
2022/06/24 11:09:08;;;;;;;5.13;2.10;;;;;;;32.50;27.25;99267.31;5013648;28;20205;-73
2022/06/24 11:11:35;;;;;;;2.40;1.70;;;;;;;32.55;26.22;99264.34;5014042;28;20203;-79
2022/06/24 11:14:25;;;;;;;2.47;1.60;;;;;;;32.69;28.09;99275.78;5013807;28;20283;-81
2022/06/24 11:16:52;;;;;;;2.40;1.80;;;;;;;32.92;27.66;99274.16;5014112;28;20201;-81
2022/06/24 11:19:19;;;;;;;4.95;1.98;;;;;;;33.12;27.33;99273.19;5013529;28;20248;-77
2022/06/24 11:21:47;;;;;;;2.17;2.08;;;;;;;33.00;26.88;99270.47;5014036;28;20260;-78
2022/06/24 11:24:18;;;;;;;4.07;1.65;;;;;;;32.99;27.67;99271.63;5014114;28;20276;-86
2022/06/24 11:27:09;;;;;;;2.63;1.70;;;;;;;33.10;26.22;99274.69;5013839;28;20225;-79
2022/06/24 11:29:57;;;;;;;2.93;1.63;;;;;;;33.32;26.02;99262.34;5013350;28;20186;-83
2022/06/24 11:32:24;;;;;;;5.55;2.10;;;;;;;33.35;26.46;99270.72;5014058;28;20186;-84
2022/06/24 11:34:51;;;;;;;3.22;1.63;;;;;;;32.99;26.03;99268.88;5017843;28;20209;-86
2022/06/24 11:37:23;;;;;;;4.47;1.95;;;;;;;33.08;26.90;99271.50;5033550;28;20197;-82
2022/06/24 11:39:53;;;;;;;3.20;1.70;;;;;;;33.18;26.55;99271.78;5031463;28;20760;-80
2022/06/24 11:42:20;;;;;;;4.07;1.83;;;;;;;32.45;26.60;99278.56;5013235;28;20198;-84
2022/06/24 11:44:46;;;;;;;5.43;2.33;;;;;;;32.22;27.74;99271.88;5013551;28;20194;-84
2022/06/24 11:47:14;;;;;;;5.07;1.90;;;;;;;32.72;27.38;99275.13;5012780;28;20694;-82
2022/06/24 11:49:44;;;;;;;3.27;2.00;;;;;;;32.93;27.24;99267.53;5012191;28;20206;-81
2022/06/24 11:52:11;;;;;;;1.77;1.67;;;;;;;32.83;26.74;99268.00;5017299;28;20198;-86